sim
Sign-in with your pilot id or email,
or register
Callsign
Passwort

Schedule Details

Flight Number: RYR9974 (1)
Departure: Bologna Guglielmo Marconi Airport (LIPE) at 19:20
Arrival: Thessaloniki International Airport (LGTS) at 21:15
Route: Ryanair Passenger Schedule. Enter filed route here before submitting Pirep.

Weather Information
Getting current METAR information for LIPE 211150Z 32004KT 260V020 6000 NSC 12/05 Q1028
Getting current METAR information for LGTS 211150Z 34014KT CAVOK 16/00 Q1023 NOSIG

Schedule Frequency

Route Map